Horizon City, Texas
Current Conditions -  °F | °C
As of 8:47 PM on Saturday 20 Dec 2014 (Local Time) from MMCS Reporting Station
Few Clouds Few Clouds  
Wind Chill: 42°   Ceiling: Unl
Heat Index: 45°   Visibility: 10mi
Dew Point: 34°   Wind: 5mph
Humidity: 66%   Direction: 360°N
Pressure: 30.09"   Gusts: NA
Location:  31.6697°N, 106.14°W
Report Text: MMCS 210347Z 36004KT 10SM FEW250 07/01 A3009 RMK 8/002
Loading
Personal Weather Stations






























Interactive Weather Map New forecast layout! Learn more

10-Day Weather Forecast

Advertisements
Track Severe Weather on mobile